sensor_id;sensor_type;location;lat;lon;timestamp;P1;P2;P0
76784;PMS7003;66893;44.316;0.092;2023-05-02T00:01:43;4.00;4.00;2.75
76784;PMS7003;66893;44.316;0.092;2023-05-02T00:04:09;3.25;3.25;2.00
76784;PMS7003;66893;44.316;0.092;2023-05-02T00:06:35;4.00;4.00;3.50
76784;PMS7003;66893;44.316;0.092;2023-05-02T00:09:00;5.50;5.50;3.00
76784;PMS7003;66893;44.316;0.092;2023-05-02T00:11:26;5.00;4.25;2.50
76784;PMS7003;66893;44.316;0.092;2023-05-02T00:13:51;4.50;3.00;2.25
76784;PMS7003;66893;44.316;0.092;2023-05-02T00:16:16;3.00;3.00;2.00
76784;PMS7003;66893;44.316;0.092;2023-05-02T00:18:42;5.00;3.75;3.00
76784;PMS7003;66893;44.316;0.092;2023-05-02T00:21:08;6.00;4.50;3.00
76784;PMS7003;66893;44.316;0.092;2023-05-02T00:23:33;4.00;4.00;3.00
76784;PMS7003;66893;44.316;0.092;2023-05-02T00:25:59;4.00;3.00;2.25
76784;PMS7003;66893;44.316;0.092;2023-05-02T00:28:24;3.00;3.00;2.25
76784;PMS7003;66893;44.316;0.092;2023-05-02T00:30:51;4.00;4.00;3.75
76784;PMS7003;66893;44.316;0.092;2023-05-02T00:33:17;2.50;2.50;2.00
76784;PMS7003;66893;44.316;0.092;2023-05-02T00:35:42;4.75;3.75;3.00
76784;PMS7003;66893;44.316;0.092;2023-05-02T00:38:08;3.00;3.00;3.00
76784;PMS7003;66893;44.316;0.092;2023-05-02T00:40:43;2.75;2.75;2.25
76784;PMS7003;66893;44.316;0.092;2023-05-02T00:43:12;5.75;3.75;3.00
76784;PMS7003;66893;44.316;0.092;2023-05-02T00:45:39;4.00;4.00;2.25
76784;PMS7003;66893;44.316;0.092;2023-05-02T00:48:06;3.25;3.00;2.75
76784;PMS7003;66893;44.316;0.092;2023-05-02T00:50:33;3.25;3.25;2.75
76784;PMS7003;66893;44.316;0.092;2023-05-02T00:53:02;3.75;3.00;3.00
76784;PMS7003;66893;44.316;0.092;2023-05-02T00:55:28;3.75;3.00;2.25
76784;PMS7003;66893;44.316;0.092;2023-05-02T00:57:55;3.00;3.00;2.50
76784;PMS7003;66893;44.316;0.092;2023-05-02T01:00:22;2.00;2.00;2.00
76784;PMS7003;66893;44.316;0.092;2023-05-02T01:06:34;2.75;2.25;2.00
76784;PMS7003;66893;44.316;0.092;2023-05-02T01:14:40;2.50;2.00;2.00
76784;PMS7003;66893;44.316;0.092;2023-05-02T01:17:09;2.00;2.00;2.00
76784;PMS7003;66893;44.316;0.092;2023-05-02T01:19:38;3.00;3.00;2.00
76784;PMS7003;66893;44.316;0.092;2023-05-02T01:22:08;3.75;3.75;3.00
76784;PMS7003;66893;44.316;0.092;2023-05-02T01:29:59;4.50;3.00;2.00
76784;PMS7003;66893;44.316;0.092;2023-05-02T01:32:27;2.75;2.75;2.00
76784;PMS7003;66893;44.316;0.092;2023-05-02T01:34:55;3.50;2.00;2.00
76784;PMS7003;66893;44.316;0.092;2023-05-02T01:37:23;3.50;2.25;2.00
76784;PMS7003;66893;44.316;0.092;2023-05-02T01:39:51;4.25;3.00;2.00
76784;PMS7003;66893;44.316;0.092;2023-05-02T01:42:20;2.00;2.00;2.00
76784;PMS7003;66893;44.316;0.092;2023-05-02T01:44:47;3.50;2.00;2.00
76784;PMS7003;66893;44.316;0.092;2023-05-02T01:47:15;4.00;3.00;2.00
76784;PMS7003;66893;44.316;0.092;2023-05-02T01:49:43;2.00;2.00;1.25
76784;PMS7003;66893;44.316;0.092;2023-05-02T01:52:10;2.25;2.25;2.00
76784;PMS7003;66893;44.316;0.092;2023-05-02T01:54:37;2.50;2.00;2.00
76784;PMS7003;66893;44.316;0.092;2023-05-02T01:57:06;2.50;2.50;2.00
76784;PMS7003;66893;44.316;0.092;2023-05-02T01:59:34;2.25;2.25;2.00
76784;PMS7003;66893;44.316;0.092;2023-05-02T02:02:01;3.00;3.00;2.00
76784;PMS7003;66893;44.316;0.092;2023-05-02T02:04:28;4.75;3.50;2.25
76784;PMS7003;66893;44.316;0.092;2023-05-02T02:06:57;3.00;2.75;2.00
76784;PMS7003;66893;44.316;0.092;2023-05-02T02:09:27;2.00;2.00;2.00
76784;PMS7003;66893;44.316;0.092;2023-05-02T02:15:31;4.25;3.00;2.25
76784;PMS7003;66893;44.316;0.092;2023-05-02T02:18:12;3.00;3.00;3.00
76784;PMS7003;66893;44.316;0.092;2023-05-02T02:20:47;2.00;2.00;1.25
76784;PMS7003;66893;44.316;0.092;2023-05-02T02:23:14;3.00;2.50;2.00
76784;PMS7003;66893;44.316;0.092;2023-05-02T02:25:41;3.00;3.00;2.00
76784;PMS7003;66893;44.316;0.092;2023-05-02T02:28:09;3.00;2.00;2.00
76784;PMS7003;66893;44.316;0.092;2023-05-02T02:30:35;2.00;2.00;1.75
76784;PMS7003;66893;44.316;0.092;2023-05-02T02:33:00;2.00;1.00;1.00
76784;PMS7003;66893;44.316;0.092;2023-05-02T02:35:28;4.00;4.00;3.00
76784;PMS7003;66893;44.316;0.092;2023-05-02T02:41:00;2.25;2.25;1.75
76784;PMS7003;66893;44.316;0.092;2023-05-02T02:43:39;3.00;3.00;2.00
76784;PMS7003;66893;44.316;0.092;2023-05-02T02:48:58;3.00;3.00;2.00
76784;PMS7003;66893;44.316;0.092;2023-05-02T02:52:15;2.25;2.25;2.00
76784;PMS7003;66893;44.316;0.092;2023-05-02T02:54:56;4.00;4.00;3.00
76784;PMS7003;66893;44.316;0.092;2023-05-02T02:57:36;3.75;2.50;2.00
76784;PMS7003;66893;44.316;0.092;2023-05-02T03:00:09;2.00;2.00;2.00
76784;PMS7003;66893;44.316;0.092;2023-05-02T03:02:40;3.25;3.00;2.50
76784;PMS7003;66893;44.316;0.092;2023-05-02T03:05:06;4.75;2.75;2.25
76784;PMS7003;66893;44.316;0.092;2023-05-02T03:07:34;3.00;3.00;2.75
76784;PMS7003;66893;44.316;0.092;2023-05-02T03:10:01;3.00;3.00;3.00
76784;PMS7003;66893;44.316;0.092;2023-05-02T03:12:29;4.00;4.00;3.00
76784;PMS7003;66893;44.316;0.092;2023-05-02T03:14:56;5.00;3.75;3.00
76784;PMS7003;66893;44.316;0.092;2023-05-02T03:17:48;3.00;3.00;2.75
76784;PMS7003;66893;44.316;0.092;2023-05-02T03:20:13;4.25;3.00;2.75
76784;PMS7003;66893;44.316;0.092;2023-05-02T03:22:39;3.00;3.00;2.25
76784;PMS7003;66893;44.316;0.092;2023-05-02T03:25:04;4.00;3.25;2.75
76784;PMS7003;66893;44.316;0.092;2023-05-02T03:27:30;4.00;3.75;3.00
76784;PMS7003;66893;44.316;0.092;2023-05-02T03:29:56;3.00;3.00;2.00
76784;PMS7003;66893;44.316;0.092;2023-05-02T03:32:21;2.75;2.75;2.25
76784;PMS7003;66893;44.316;0.092;2023-05-02T03:34:47;1.00;1.00;1.00
76784;PMS7003;66893;44.316;0.092;2023-05-02T03:37:12;5.50;4.00;3.00
76784;PMS7003;66893;44.316;0.092;2023-05-02T03:39:37;3.00;3.00;2.25
76784;PMS7003;66893;44.316;0.092;2023-05-02T03:42:03;4.00;2.50;2.00
76784;PMS7003;66893;44.316;0.092;2023-05-02T03:44:29;5.25;3.75;2.25
76784;PMS7003;66893;44.316;0.092;2023-05-02T03:46:55;2.50;2.50;2.25
76784;PMS7003;66893;44.316;0.092;2023-05-02T03:49:20;3.25;3.25;2.75
76784;PMS7003;66893;44.316;0.092;2023-05-02T03:51:45;2.75;2.50;2.25
76784;PMS7003;66893;44.316;0.092;2023-05-02T03:54:11;3.00;3.00;2.00
76784;PMS7003;66893;44.316;0.092;2023-05-02T03:56:36;2.50;2.50;2.00
76784;PMS7003;66893;44.316;0.092;2023-05-02T03:59:03;5.00;2.75;2.25
76784;PMS7003;66893;44.316;0.092;2023-05-02T04:01:29;2.75;2.75;2.00
76784;PMS7003;66893;44.316;0.092;2023-05-02T04:03:55;3.25;3.25;2.50
76784;PMS7003;66893;44.316;0.092;2023-05-02T04:06:21;4.50;3.25;2.25
76784;PMS7003;66893;44.316;0.092;2023-05-02T04:08:46;2.00;2.00;1.75
76784;PMS7003;66893;44.316;0.092;2023-05-02T04:11:12;3.50;1.75;1.50
76784;PMS7003;66893;44.316;0.092;2023-05-02T04:13:38;3.00;3.00;2.25
76784;PMS7003;66893;44.316;0.092;2023-05-02T04:16:03;3.00;3.00;2.00
76784;PMS7003;66893;44.316;0.092;2023-05-02T04:18:29;2.25;2.25;2.25
76784;PMS7003;66893;44.316;0.092;2023-05-02T04:20:55;4.50;3.00;2.25
76784;PMS7003;66893;44.316;0.092;2023-05-02T04:23:20;3.00;3.00;2.00
76784;PMS7003;66893;44.316;0.092;2023-05-02T04:25:52;3.25;3.25;2.25
76784;PMS7003;66893;44.316;0.092;2023-05-02T04:28:19;5.00;3.50;2.00
76784;PMS7003;66893;44.316;0.092;2023-05-02T04:30:46;4.75;4.00;3.00
76784;PMS7003;66893;44.316;0.092;2023-05-02T04:33:12;2.25;2.25;2.25
76784;PMS7003;66893;44.316;0.092;2023-05-02T04:35:38;5.00;3.00;2.75
76784;PMS7003;66893;44.316;0.092;2023-05-02T04:38:05;4.00;3.75;3.00
76784;PMS7003;66893;44.316;0.092;2023-05-02T04:40:30;4.00;4.00;3.00
76784;PMS7003;66893;44.316;0.092;2023-05-02T04:42:56;3.25;3.00;3.00
76784;PMS7003;66893;44.316;0.092;2023-05-02T04:45:22;3.50;3.50;2.75
76784;PMS7003;66893;44.316;0.092;2023-05-02T04:47:47;2.00;2.00;1.50
76784;PMS7003;66893;44.316;0.092;2023-05-02T04:50:13;5.00;5.00;3.25
76784;PMS7003;66893;44.316;0.092;2023-05-02T04:52:38;3.75;2.25;2.00
76784;PMS7003;66893;44.316;0.092;2023-05-02T04:55:04;3.50;3.50;3.00
76784;PMS7003;66893;44.316;0.092;2023-05-02T04:57:30;4.50;4.00;3.00
76784;PMS7003;66893;44.316;0.092;2023-05-02T04:59:55;4.00;3.25;3.00
76784;PMS7003;66893;44.316;0.092;2023-05-02T05:02:21;3.75;3.75;3.00
76784;PMS7003;66893;44.316;0.092;2023-05-02T05:04:47;4.25;3.00;2.00
76784;PMS7003;66893;44.316;0.092;2023-05-02T05:07:13;4.00;3.50;3.25
76784;PMS7003;66893;44.316;0.092;2023-05-02T05:09:38;4.75;3.25;2.50
76784;PMS7003;66893;44.316;0.092;2023-05-02T05:12:03;4.25;4.00;3.00
76784;PMS7003;66893;44.316;0.092;2023-05-02T05:14:29;3.75;3.75;3.00
76784;PMS7003;66893;44.316;0.092;2023-05-02T05:16:55;4.00;2.50;2.00
76784;PMS7003;66893;44.316;0.092;2023-05-02T05:19:20;4.00;4.00;3.25
76784;PMS7003;66893;44.316;0.092;2023-05-02T05:21:46;4.50;4.50;4.00
76784;PMS7003;66893;44.316;0.092;2023-05-02T05:24:11;4.50;4.00;3.00
76784;PMS7003;66893;44.316;0.092;2023-05-02T05:26:37;4.00;4.00;2.50
76784;PMS7003;66893;44.316;0.092;2023-05-02T05:29:02;3.25;3.25;3.00
76784;PMS7003;66893;44.316;0.092;2023-05-02T05:31:27;4.00;3.00;3.00
76784;PMS7003;66893;44.316;0.092;2023-05-02T05:33:53;4.00;3.00;2.00
76784;PMS7003;66893;44.316;0.092;2023-05-02T05:36:19;3.25;3.25;3.00
76784;PMS7003;66893;44.316;0.092;2023-05-02T05:38:44;3.25;3.00;2.00
76784;PMS7003;66893;44.316;0.092;2023-05-02T05:41:10;5.75;4.00;3.25
76784;PMS7003;66893;44.316;0.092;2023-05-02T05:43:35;2.50;2.25;2.00
76784;PMS7003;66893;44.316;0.092;2023-05-02T05:46:01;3.50;3.00;2.25
76784;PMS7003;66893;44.316;0.092;2023-05-02T05:48:27;4.25;4.25;3.25
76784;PMS7003;66893;44.316;0.092;2023-05-02T05:50:52;4.00;4.00;2.50
76784;PMS7003;66893;44.316;0.092;2023-05-02T05:53:18;4.75;4.75;2.75
76784;PMS7003;66893;44.316;0.092;2023-05-02T05:55:44;5.75;4.50;3.00
76784;PMS7003;66893;44.316;0.092;2023-05-02T05:58:10;4.00;4.00;3.00
76784;PMS7003;66893;44.316;0.092;2023-05-02T06:00:36;4.75;4.00;3.00
76784;PMS7003;66893;44.316;0.092;2023-05-02T06:03:02;3.75;3.75;3.00
76784;PMS7003;66893;44.316;0.092;2023-05-02T06:05:28;7.50;4.25;3.00
76784;PMS7003;66893;44.316;0.092;2023-05-02T06:07:54;4.50;4.25;3.25
76784;PMS7003;66893;44.316;0.092;2023-05-02T06:10:20;3.25;3.25;3.00
76784;PMS7003;66893;44.316;0.092;2023-05-02T06:12:46;4.00;4.00;2.25
76784;PMS7003;66893;44.316;0.092;2023-05-02T06:15:11;3.00;3.00;2.75
76784;PMS7003;66893;44.316;0.092;2023-05-02T06:17:37;5.25;3.50;3.00
76784;PMS7003;66893;44.316;0.092;2023-05-02T06:20:02;5.00;5.00;3.50
76784;PMS7003;66893;44.316;0.092;2023-05-02T06:22:28;4.00;4.00;3.75
76784;PMS7003;66893;44.316;0.092;2023-05-02T06:24:53;4.00;4.00;3.50
76784;PMS7003;66893;44.316;0.092;2023-05-02T06:27:20;6.50;5.50;4.00
76784;PMS7003;66893;44.316;0.092;2023-05-02T06:29:45;5.50;4.25;3.50
76784;PMS7003;66893;44.316;0.092;2023-05-02T06:32:11;4.00;4.00;2.50
76784;PMS7003;66893;44.316;0.092;2023-05-02T06:34:36;3.50;3.50;3.00
76784;PMS7003;66893;44.316;0.092;2023-05-02T06:37:01;4.00;4.00;4.00
76784;PMS7003;66893;44.316;0.092;2023-05-02T06:39:27;3.00;3.00;3.00
76784;PMS7003;66893;44.316;0.092;2023-05-02T06:41:56;3.75;3.75;3.00
76784;PMS7003;66893;44.316;0.092;2023-05-02T06:44:22;5.00;3.25;3.00
76784;PMS7003;66893;44.316;0.092;2023-05-02T06:46:47;4.50;4.00;3.00
76784;PMS7003;66893;44.316;0.092;2023-05-02T06:49:14;3.25;3.25;3.00
76784;PMS7003;66893;44.316;0.092;2023-05-02T06:51:39;4.25;3.75;2.75
76784;PMS7003;66893;44.316;0.092;2023-05-02T06:54:05;3.75;3.75;2.00
76784;PMS7003;66893;44.316;0.092;2023-05-02T06:56:30;1.75;1.75;1.25
76784;PMS7003;66893;44.316;0.092;2023-05-02T06:58:56;4.00;4.00;3.00
76784;PMS7003;66893;44.316;0.092;2023-05-02T07:01:21;4.50;4.50;3.50
76784;PMS7003;66893;44.316;0.092;2023-05-02T07:03:47;3.25;3.25;3.00
76784;PMS7003;66893;44.316;0.092;2023-05-02T07:06:12;5.00;5.00;4.00
76784;PMS7003;66893;44.316;0.092;2023-05-02T07:08:38;4.25;4.25;3.50
76784;PMS7003;66893;44.316;0.092;2023-05-02T07:11:03;4.00;4.00;3.25
76784;PMS7003;66893;44.316;0.092;2023-05-02T07:13:29;4.75;3.00;2.75
76784;PMS7003;66893;44.316;0.092;2023-05-02T07:15:54;5.50;4.00;3.75
76784;PMS7003;66893;44.316;0.092;2023-05-02T07:18:20;4.25;4.25;3.50
76784;PMS7003;66893;44.316;0.092;2023-05-02T07:20:46;4.25;4.25;3.50
76784;PMS7003;66893;44.316;0.092;2023-05-02T07:23:12;4.25;4.00;3.00
76784;PMS7003;66893;44.316;0.092;2023-05-02T07:25:37;4.00;4.00;2.75
76784;PMS7003;66893;44.316;0.092;2023-05-02T07:28:04;4.00;3.25;3.00
76784;PMS7003;66893;44.316;0.092;2023-05-02T07:30:30;4.25;4.00;3.00
76784;PMS7003;66893;44.316;0.092;2023-05-02T07:32:55;4.25;4.00;3.00
76784;PMS7003;66893;44.316;0.092;2023-05-02T07:35:21;4.00;3.50;3.00
76784;PMS7003;66893;44.316;0.092;2023-05-02T07:37:46;7.00;5.50;3.50
76784;PMS7003;66893;44.316;0.092;2023-05-02T07:40:12;3.00;3.00;3.00
76784;PMS7003;66893;44.316;0.092;2023-05-02T07:42:37;5.75;5.00;4.00
76784;PMS7003;66893;44.316;0.092;2023-05-02T07:45:05;4.25;3.00;2.75
76784;PMS7003;66893;44.316;0.092;2023-05-02T07:47:31;3.50;3.00;2.25
76784;PMS7003;66893;44.316;0.092;2023-05-02T07:49:56;3.50;3.50;3.00
76784;PMS7003;66893;44.316;0.092;2023-05-02T07:52:22;3.25;3.25;2.75
76784;PMS7003;66893;44.316;0.092;2023-05-02T07:54:47;3.75;3.75;3.00
76784;PMS7003;66893;44.316;0.092;2023-05-02T07:57:16;3.25;3.00;2.50
76784;PMS7003;66893;44.316;0.092;2023-05-02T07:59:42;6.50;3.00;2.00
76784;PMS7003;66893;44.316;0.092;2023-05-02T08:02:07;4.00;3.75;3.25
76784;PMS7003;66893;44.316;0.092;2023-05-02T08:04:33;4.00;4.00;2.50
76784;PMS7003;66893;44.316;0.092;2023-05-02T08:06:59;3.50;3.00;3.00
76784;PMS7003;66893;44.316;0.092;2023-05-02T08:09:24;3.00;2.00;2.00
76784;PMS7003;66893;44.316;0.092;2023-05-02T08:11:50;3.00;3.00;2.00
76784;PMS7003;66893;44.316;0.092;2023-05-02T08:14:16;2.00;2.00;2.00
76784;PMS7003;66893;44.316;0.092;2023-05-02T08:16:42;3.75;3.75;3.00
76784;PMS7003;66893;44.316;0.092;2023-05-02T08:19:07;3.00;3.00;2.75
76784;PMS7003;66893;44.316;0.092;2023-05-02T08:21:33;2.25;2.25;2.00
76784;PMS7003;66893;44.316;0.092;2023-05-02T08:23:58;3.75;3.75;2.75
76784;PMS7003;66893;44.316;0.092;2023-05-02T08:26:24;4.00;4.00;3.00
76784;PMS7003;66893;44.316;0.092;2023-05-02T08:28:51;3.00;2.00;2.00
76784;PMS7003;66893;44.316;0.092;2023-05-02T08:31:16;3.50;3.50;2.00
76784;PMS7003;66893;44.316;0.092;2023-05-02T08:33:42;5.00;3.75;2.00
76784;PMS7003;66893;44.316;0.092;2023-05-02T08:36:11;2.75;2.75;2.50
76784;PMS7003;66893;44.316;0.092;2023-05-02T08:38:38;4.50;3.00;2.00
76784;PMS7003;66893;44.316;0.092;2023-05-02T08:41:16;3.75;3.00;2.00
76784;PMS7003;66893;44.316;0.092;2023-05-02T08:43:43;2.50;2.00;1.50
76784;PMS7003;66893;44.316;0.092;2023-05-02T08:46:09;1.00;1.00;1.00
76784;PMS7003;66893;44.316;0.092;2023-05-02T08:48:36;3.00;2.50;2.00
76784;PMS7003;66893;44.316;0.092;2023-05-02T08:51:05;3.00;3.00;2.50
76784;PMS7003;66893;44.316;0.092;2023-05-02T08:53:34;2.75;2.75;2.00
76784;PMS7003;66893;44.316;0.092;2023-05-02T08:56:00;2.00;2.00;2.00
76784;PMS7003;66893;44.316;0.092;2023-05-02T08:58:26;2.00;2.00;1.00
76784;PMS7003;66893;44.316;0.092;2023-05-02T09:00:53;5.50;2.00;2.00
76784;PMS7003;66893;44.316;0.092;2023-05-02T09:03:33;5.00;2.00;1.00
76784;PMS7003;66893;44.316;0.092;2023-05-02T09:06:09;3.75;2.00;2.00
76784;PMS7003;66893;44.316;0.092;2023-05-02T09:08:41;4.75;2.75;2.00
76784;PMS7003;66893;44.316;0.092;2023-05-02T09:11:08;4.00;2.00;1.50
76784;PMS7003;66893;44.316;0.092;2023-05-02T09:13:41;1.75;1.75;1.75
76784;PMS7003;66893;44.316;0.092;2023-05-02T09:16:12;4.00;2.00;2.00
76784;PMS7003;66893;44.316;0.092;2023-05-02T09:18:42;2.00;1.75;1.00
76784;PMS7003;66893;44.316;0.092;2023-05-02T09:21:10;1.50;1.50;1.25
76784;PMS7003;66893;44.316;0.092;2023-05-02T09:23:41;3.25;2.00;1.50
76784;PMS7003;66893;44.316;0.092;2023-05-02T09:26:15;1.25;1.25;1.00
76784;PMS7003;66893;44.316;0.092;2023-05-02T09:28:52;2.00;1.00;1.00
76784;PMS7003;66893;44.316;0.092;2023-05-02T09:31:20;2.50;2.00;1.00
76784;PMS7003;66893;44.316;0.092;2023-05-02T09:33:47;2.00;2.00;2.00
76784;PMS7003;66893;44.316;0.092;2023-05-02T09:36:14;2.00;2.00;1.25
76784;PMS7003;66893;44.316;0.092;2023-05-02T09:38:41;2.00;2.00;1.00
76784;PMS7003;66893;44.316;0.092;2023-05-02T09:41:09;2.75;2.00;1.00
76784;PMS7003;66893;44.316;0.092;2023-05-02T09:43:34;2.50;2.00;1.00
76784;PMS7003;66893;44.316;0.092;2023-05-02T09:46:04;4.50;2.00;1.50
76784;PMS7003;66893;44.316;0.092;2023-05-02T09:51:22;1.50;1.50;1.25
76784;PMS7003;66893;44.316;0.092;2023-05-02T09:53:49;2.25;1.50;1.00
76784;PMS7003;66893;44.316;0.092;2023-05-02T09:56:16;1.75;1.75;1.75
76784;PMS7003;66893;44.316;0.092;2023-05-02T09:58:42;2.50;2.00;1.00
76784;PMS7003;66893;44.316;0.092;2023-05-02T10:01:12;3.00;1.00;1.00
76784;PMS7003;66893;44.316;0.092;2023-05-02T10:03:43;1.50;1.00;1.00
76784;PMS7003;66893;44.316;0.092;2023-05-02T10:06:11;1.00;1.00;1.00
76784;PMS7003;66893;44.316;0.092;2023-05-02T10:08:38;3.75;1.00;1.00
76784;PMS7003;66893;44.316;0.092;2023-05-02T10:11:06;2.00;1.50;1.25
76784;PMS7003;66893;44.316;0.092;2023-05-02T10:13:33;2.00;2.00;1.00
76784;PMS7003;66893;44.316;0.092;2023-05-02T10:16:03;1.00;1.00;1.00
76784;PMS7003;66893;44.316;0.092;2023-05-02T10:21:07;1.00;1.00;1.00
76784;PMS7003;66893;44.316;0.092;2023-05-02T10:23:35;1.00;1.00;0.25
76784;PMS7003;66893;44.316;0.092;2023-05-02T10:26:02;3.00;1.25;1.00
76784;PMS7003;66893;44.316;0.092;2023-05-02T10:28:28;0.25;0.25;0.00
76784;PMS7003;66893;44.316;0.092;2023-05-02T10:30:54;0.25;0.25;0.00
76784;PMS7003;66893;44.316;0.092;2023-05-02T10:33:21;2.50;1.00;1.00
76784;PMS7003;66893;44.316;0.092;2023-05-02T10:35:47;1.00;1.00;0.75
76784;PMS7003;66893;44.316;0.092;2023-05-02T10:38:17;3.50;2.00;1.00
76784;PMS7003;66893;44.316;0.092;2023-05-02T10:40:48;1.50;1.00;1.00
76784;PMS7003;66893;44.316;0.092;2023-05-02T10:43:20;2.25;2.25;1.00
76784;PMS7003;66893;44.316;0.092;2023-05-02T10:45:47;2.50;1.00;0.50
76784;PMS7003;66893;44.316;0.092;2023-05-02T10:50:54;1.50;1.00;1.00
76784;PMS7003;66893;44.316;0.092;2023-05-02T10:53:22;2.00;1.50;1.00
76784;PMS7003;66893;44.316;0.092;2023-05-02T10:58:40;10.25;9.75;4.00
76784;PMS7003;66893;44.316;0.092;2023-05-02T11:03:58;10.00;6.00;3.00
76784;PMS7003;66893;44.316;0.092;2023-05-02T11:06:28;8.75;5.00;2.25
76784;PMS7003;66893;44.316;0.092;2023-05-02T11:11:43;12.75;5.00;2.50
76784;PMS7003;66893;44.316;0.092;2023-05-02T11:14:10;8.75;4.50;2.00
76784;PMS7003;66893;44.316;0.092;2023-05-02T11:19:21;4.75;2.75;2.00
76784;PMS7003;66893;44.316;0.092;2023-05-02T11:21:46;8.25;4.50;2.25
76784;PMS7003;66893;44.316;0.092;2023-05-02T11:24:36;6.75;4.00;2.00
76784;PMS7003;66893;44.316;0.092;2023-05-02T11:30:02;3.75;3.00;1.50
76784;PMS7003;66893;44.316;0.092;2023-05-02T11:37:40;2.75;2.00;1.00
76784;PMS7003;66893;44.316;0.092;2023-05-02T11:40:12;4.75;3.00;2.00
76784;PMS7003;66893;44.316;0.092;2023-05-02T11:42:38;3.00;1.75;1.00
76784;PMS7003;66893;44.316;0.092;2023-05-02T11:45:03;4.00;3.50;1.25
76784;PMS7003;66893;44.316;0.092;2023-05-02T11:47:31;2.25;2.00;1.00
76784;PMS7003;66893;44.316;0.092;2023-05-02T11:49:57;4.50;2.00;1.75
76784;PMS7003;66893;44.316;0.092;2023-05-02T11:52:24;3.00;2.00;1.25
76784;PMS7003;66893;44.316;0.092;2023-05-02T11:54:53;1.75;1.75;1.00
76784;PMS7003;66893;44.316;0.092;2023-05-02T11:57:20;3.25;1.25;1.00
76784;PMS7003;66893;44.316;0.092;2023-05-02T11:59:53;2.50;1.50;1.00
76784;PMS7003;66893;44.316;0.092;2023-05-02T12:02:20;2.00;2.00;1.75
76784;PMS7003;66893;44.316;0.092;2023-05-02T12:05:11;2.00;2.00;1.00
76784;PMS7003;66893;44.316;0.092;2023-05-02T12:07:42;2.00;2.00;1.25
76784;PMS7003;66893;44.316;0.092;2023-05-02T12:10:09;0.50;0.50;0.50
76784;PMS7003;66893;44.316;0.092;2023-05-02T12:12:35;4.00;1.75;1.00
76784;PMS7003;66893;44.316;0.092;2023-05-02T12:15:05;1.00;1.00;1.00
76784;PMS7003;66893;44.316;0.092;2023-05-02T12:17:32;2.00;2.00;1.75
76784;PMS7003;66893;44.316;0.092;2023-05-02T12:20:08;0.75;0.75;0.75
76784;PMS7003;66893;44.316;0.092;2023-05-02T12:22:34;1.50;0.25;0.25
76784;PMS7003;66893;44.316;0.092;2023-05-02T12:25:00;1.00;1.00;0.75
76784;PMS7003;66893;44.316;0.092;2023-05-02T12:27:27;1.75;1.75;1.00
76784;PMS7003;66893;44.316;0.092;2023-05-02T12:29:53;1.50;1.50;1.00
76784;PMS7003;66893;44.316;0.092;2023-05-02T12:32:31;1.50;1.00;1.00
76784;PMS7003;66893;44.316;0.092;2023-05-02T12:34:58;1.00;1.00;1.00
76784;PMS7003;66893;44.316;0.092;2023-05-02T12:37:25;2.75;2.00;1.00
76784;PMS7003;66893;44.316;0.092;2023-05-02T12:39:51;1.50;1.00;1.00
76784;PMS7003;66893;44.316;0.092;2023-05-02T12:42:19;3.25;1.25;1.00
76784;PMS7003;66893;44.316;0.092;2023-05-02T12:44:46;1.50;1.50;1.00
76784;PMS7003;66893;44.316;0.092;2023-05-02T12:47:13;3.75;1.00;1.00
76784;PMS7003;66893;44.316;0.092;2023-05-02T12:49:50;1.00;1.00;0.50
76784;PMS7003;66893;44.316;0.092;2023-05-02T12:52:21;2.50;1.00;1.00
76784;PMS7003;66893;44.316;0.092;2023-05-02T12:55:18;1.00;1.00;1.00
76784;PMS7003;66893;44.316;0.092;2023-05-02T12:57:45;1.75;0.25;0.25
76784;PMS7003;66893;44.316;0.092;2023-05-02T13:00:11;2.25;1.00;0.75
76784;PMS7003;66893;44.316;0.092;2023-05-02T13:02:37;1.25;1.00;1.00
76784;PMS7003;66893;44.316;0.092;2023-05-02T13:05:12;1.00;1.00;1.00
76784;PMS7003;66893;44.316;0.092;2023-05-02T13:07:41;1.00;1.00;0.25
76784;PMS7003;66893;44.316;0.092;2023-05-02T13:10:07;1.00;1.00;1.00
76784;PMS7003;66893;44.316;0.092;2023-05-02T13:12:33;1.00;1.00;1.00
76784;PMS7003;66893;44.316;0.092;2023-05-02T13:15:05;1.00;1.00;0.25
76784;PMS7003;66893;44.316;0.092;2023-05-02T13:17:32;1.00;1.00;1.00
76784;PMS7003;66893;44.316;0.092;2023-05-02T13:19:57;1.00;1.00;1.00
76784;PMS7003;66893;44.316;0.092;2023-05-02T13:22:23;1.25;1.25;1.25
76784;PMS7003;66893;44.316;0.092;2023-05-02T13:24:49;1.00;1.00;0.00
76784;PMS7003;66893;44.316;0.092;2023-05-02T13:27:15;2.00;1.00;0.00
76784;PMS7003;66893;44.316;0.092;2023-05-02T13:29:42;0.00;0.00;0.00
76784;PMS7003;66893;44.316;0.092;2023-05-02T13:32:11;2.00;0.25;0.25
76784;PMS7003;66893;44.316;0.092;2023-05-02T13:34:36;2.00;0.50;0.50
76784;PMS7003;66893;44.316;0.092;2023-05-02T13:37:02;3.50;1.00;0.25
76784;PMS7003;66893;44.316;0.092;2023-05-02T13:39:28;0.50;0.50;0.00
76784;PMS7003;66893;44.316;0.092;2023-05-02T13:41:53;0.75;0.75;0.75
76784;PMS7003;66893;44.316;0.092;2023-05-02T13:44:18;2.25;1.00;0.75
76784;PMS7003;66893;44.316;0.092;2023-05-02T13:46:44;0.00;0.00;0.00
76784;PMS7003;66893;44.316;0.092;2023-05-02T13:49:09;0.75;0.75;0.75
76784;PMS7003;66893;44.316;0.092;2023-05-02T13:51:35;1.00;1.00;0.00
76784;PMS7003;66893;44.316;0.092;2023-05-02T13:54:00;1.50;0.50;0.00
76784;PMS7003;66893;44.316;0.092;2023-05-02T13:56:26;2.00;0.75;0.75
76784;PMS7003;66893;44.316;0.092;2023-05-02T13:58:52;0.00;0.00;0.00
76784;PMS7003;66893;44.316;0.092;2023-05-02T14:01:17;2.00;1.00;1.00
76784;PMS7003;66893;44.316;0.092;2023-05-02T14:03:43;0.75;0.75;0.75
76784;PMS7003;66893;44.316;0.092;2023-05-02T14:06:08;1.00;1.00;1.00
76784;PMS7003;66893;44.316;0.092;2023-05-02T14:08:34;1.00;1.00;1.00
76784;PMS7003;66893;44.316;0.092;2023-05-02T14:10:59;1.00;1.00;1.00
76784;PMS7003;66893;44.316;0.092;2023-05-02T14:13:25;0.75;0.75;0.50
76784;PMS7003;66893;44.316;0.092;2023-05-02T14:15:51;1.00;1.00;0.75
76784;PMS7003;66893;44.316;0.092;2023-05-02T14:18:17;0.00;0.00;0.00
76784;PMS7003;66893;44.316;0.092;2023-05-02T14:20:42;0.50;0.00;0.00
76784;PMS7003;66893;44.316;0.092;2023-05-02T14:23:08;1.00;1.00;1.00
76784;PMS7003;66893;44.316;0.092;2023-05-02T14:25:34;1.00;1.00;1.00
76784;PMS7003;66893;44.316;0.092;2023-05-02T14:28:00;1.00;1.00;1.00
76784;PMS7003;66893;44.316;0.092;2023-05-02T14:30:26;1.00;1.00;0.25
76784;PMS7003;66893;44.316;0.092;2023-05-02T14:32:52;0.00;0.00;0.00
76784;PMS7003;66893;44.316;0.092;2023-05-02T14:35:18;1.00;1.00;1.00
76784;PMS7003;66893;44.316;0.092;2023-05-02T14:37:43;1.25;0.75;0.00
76784;PMS7003;66893;44.316;0.092;2023-05-02T14:40:09;1.00;1.00;0.50
76784;PMS7003;66893;44.316;0.092;2023-05-02T14:42:36;0.00;0.00;0.00
76784;PMS7003;66893;44.316;0.092;2023-05-02T14:45:01;0.75;0.75;0.00
76784;PMS7003;66893;44.316;0.092;2023-05-02T14:47:27;2.25;1.00;1.00
76784;PMS7003;66893;44.316;0.092;2023-05-02T14:49:56;1.00;1.00;1.00
76784;PMS7003;66893;44.316;0.092;2023-05-02T14:52:21;0.75;0.50;0.25
76784;PMS7003;66893;44.316;0.092;2023-05-02T14:54:47;2.75;0.00;0.00
76784;PMS7003;66893;44.316;0.092;2023-05-02T14:57:12;2.00;0.75;0.75
76784;PMS7003;66893;44.316;0.092;2023-05-02T14:59:38;0.75;0.75;0.25
76784;PMS7003;66893;44.316;0.092;2023-05-02T15:02:04;1.50;1.00;0.00
76784;PMS7003;66893;44.316;0.092;2023-05-02T15:04:30;1.00;1.00;0.50
76784;PMS7003;66893;44.316;0.092;2023-05-02T15:06:55;0.00;0.00;0.00
76784;PMS7003;66893;44.316;0.092;2023-05-02T15:09:22;1.00;1.00;1.00
76784;PMS7003;66893;44.316;0.092;2023-05-02T15:11:50;0.00;0.00;0.00
76784;PMS7003;66893;44.316;0.092;2023-05-02T15:14:15;0.25;0.25;0.25
76784;PMS7003;66893;44.316;0.092;2023-05-02T15:16:41;2.00;0.00;0.00